Time;durP1;ratioP1;P1;durP2;ratioP2;P2;SDS_P1;SDS_P2;PMS_P1;PMS_P2;Temp;Humidity;BMP_temperature;BMP_pressure;BME280_temperature;BME280_humidity;BME280_pressure;Samples;Min_cycle;Max_cycle;Signal;HPM_P1;HPM_P2
2022/09/29 00:04:01;;;;;;;4.42;3.58;;;;;;;9.13;93.11;98737.03;2877881;81;20999;-88
2022/09/29 00:08:02;;;;;;;5.50;4.33;;;;;;;9.13;92.61;98741.53;2878385;81;21098;-88
2022/09/29 00:12:04;;;;;;;5.17;4.20;;;;;;;9.07;92.08;98744.30;2872967;81;21050;-88
2022/09/29 00:16:05;;;;;;;7.72;4.10;;;;;;;8.84;92.84;98750.56;2875283;81;21065;-88
2022/09/29 00:20:08;;;;;;;6.05;4.42;;;;;;;8.70;93.57;98750.13;2878865;82;21126;-88
2022/09/29 00:24:09;;;;;;;4.20;3.80;;;;;;;8.70;93.77;98757.23;2759881;82;21022;-88
2022/09/29 00:28:10;;;;;;;5.70;3.98;;;;;;;8.70;94.03;98752.78;2823476;82;21073;-88
2022/09/29 00:32:11;;;;;;;6.85;3.85;;;;;;;8.76;94.18;98757.98;2879155;81;21369;-88
2022/09/29 00:36:16;;;;;;;4.67;3.52;;;;;;;8.79;93.56;98756.34;2877595;81;21022;-88
2022/09/29 00:40:17;;;;;;;5.97;3.98;;;;;;;8.64;92.93;98752.05;2875678;82;21069;-88
2022/09/29 00:44:24;;;;;;;6.08;4.80;;;;;;;8.49;93.64;98751.70;2878918;80;21047;-88
2022/09/29 00:48:29;;;;;;;4.87;4.15;;;;;;;8.48;94.21;98754.02;2877069;82;21085;-88
2022/09/29 00:52:43;;;;;;;4.40;3.93;;;;;;;8.47;94.29;98752.86;2878608;81;21049;-88
2022/09/29 00:56:46;;;;;;;5.45;4.60;;;;;;;8.50;94.62;98753.41;2881818;82;21588;-88
2022/09/29 01:00:48;;;;;;;4.75;3.35;;;;;;;8.53;94.10;98757.58;2881228;81;21081;-88
2022/09/29 01:04:53;;;;;;;6.53;4.17;;;;;;;8.52;94.29;98754.59;2879200;81;21121;-88
2022/09/29 01:08:58;;;;;;;6.55;3.95;;;;;;;8.47;94.34;98756.84;2879430;81;21054;-88
2022/09/29 01:13:00;;;;;;;5.10;3.98;;;;;;;8.34;94.29;98765.97;2871901;82;21558;-88
2022/09/29 01:17:01;;;;;;;5.45;4.20;;;;;;;8.27;94.87;98765.72;2873670;82;21142;-88
2022/09/29 01:21:11;;;;;;;7.67;4.37;;;;;;;8.30;94.99;98769.91;2875440;81;21003;-89
2022/09/29 01:25:59;;;;;;;3.33;2.87;;;;;;;8.33;94.87;98780.20;2866919;82;21074;-88
2022/09/29 01:30:12;;;;;;;8.38;3.55;;;;;;;8.37;94.89;98791.34;2874314;81;21420;-89
2022/09/29 01:34:40;;;;;;;5.08;4.20;;;;;;;8.39;94.81;98788.05;2881516;81;21023;-89
2022/09/29 01:38:55;;;;;;;4.42;3.80;;;;;;;8.28;94.71;98786.44;2878013;82;21043;-88
2022/09/29 01:43:11;;;;;;;3.72;2.40;;;;;;;8.18;95.58;98793.59;2858306;82;21610;-89
2022/09/29 01:47:23;;;;;;;4.65;3.22;;;;;;;8.03;97.17;98792.74;2875915;81;21070;-89
2022/09/29 01:51:33;;;;;;;4.70;3.90;;;;;;;7.84;98.10;98794.99;2876969;81;21085;-89
2022/09/29 01:55:39;;;;;;;4.00;3.55;;;;;;;7.77;98.85;98793.41;2857316;81;21039;-89
2022/09/29 01:59:58;;;;;;;4.85;3.33;;;;;;;7.83;98.67;98802.09;2833054;82;21538;-89
2022/09/29 02:04:14;;;;;;;3.98;3.22;;;;;;;7.96;98.15;98809.73;2863440;82;21515;-89
2022/09/29 02:08:32;;;;;;;4.37;3.55;;;;;;;8.06;96.94;98800.90;2887404;82;20988;-89
2022/09/29 02:12:36;;;;;;;6.28;4.42;;;;;;;8.12;96.58;98801.16;2872176;81;21054;-88
2022/09/29 02:16:42;;;;;;;2.98;2.70;;;;;;;8.21;95.88;98799.44;2874619;81;21533;-89
2022/09/29 02:20:46;;;;;;;6.08;2.87;;;;;;;8.27;94.83;98800.67;2872946;81;21046;-88
2022/09/29 02:24:52;;;;;;;3.58;3.27;;;;;;;8.29;94.17;98796.05;2847580;82;21027;-88
2022/09/29 02:28:54;;;;;;;3.55;3.25;;;;;;;8.25;93.41;98800.80;2867702;82;21593;-88
2022/09/29 02:32:55;;;;;;;8.38;2.62;;;;;;;8.18;93.60;98805.51;2818182;81;21083;-89
2022/09/29 02:37:18;;;;;;;4.33;2.87;;;;;;;7.94;94.62;98811.66;2872235;82;21006;-89
2022/09/29 02:41:48;;;;;;;11.73;3.60;;;;;;;7.81;94.95;98809.34;2874774;81;21019;-88
2022/09/29 02:46:13;;;;;;;5.03;3.00;;;;;;;7.74;95.53;98810.06;2883977;81;21510;-88
2022/09/29 02:51:11;;;;;;;3.05;2.75;;;;;;;7.75;95.87;98809.92;2829395;82;21011;-89
2022/09/29 02:55:39;;;;;;;7.08;5.00;;;;;;;7.74;95.51;98808.27;2859190;81;21632;-88
2022/09/29 03:00:14;;;;;;;9.63;5.25;;;;;;;7.77;95.87;98802.67;2876318;82;21619;-90
2022/09/29 03:04:15;;;;;;;5.30;3.77;;;;;;;7.85;95.57;98802.77;2871688;81;21450;-88
2022/09/29 03:08:16;;;;;;;9.15;8.43;;;;;;;7.92;94.83;98804.86;2875350;81;21598;-89
2022/09/29 03:12:17;;;;;;;5.15;4.67;;;;;;;7.95;94.44;98807.22;2870550;81;20998;-91
2022/09/29 03:16:18;;;;;;;4.60;4.20;;;;;;;7.97;94.23;98807.90;2878843;81;21037;-92
2022/09/29 03:20:20;;;;;;;3.87;3.22;;;;;;;7.99;93.87;98804.61;2873618;82;21031;-92
2022/09/29 03:24:21;;;;;;;6.05;3.87;;;;;;;7.99;93.83;98807.27;2870999;82;21060;-92
2022/09/29 03:28:22;;;;;;;4.50;2.45;;;;;;;8.02;93.68;98812.27;2879567;81;21066;-91
2022/09/29 03:32:23;;;;;;;5.75;3.65;;;;;;;8.04;92.97;98812.95;2843218;81;20980;-93
2022/09/29 03:36:24;;;;;;;5.12;3.37;;;;;;;8.03;92.56;98819.73;2877482;82;21049;-91
2022/09/29 03:40:27;;;;;;;7.20;4.30;;;;;;;7.98;92.52;98825.45;2878951;82;21030;-92
2022/09/29 03:44:28;;;;;;;3.87;2.98;;;;;;;7.97;92.99;98828.61;2880773;82;20988;-92
2022/09/29 03:48:32;;;;;;;3.83;2.75;;;;;;;7.99;92.87;98828.45;2879187;82;21053;-92
2022/09/29 03:52:33;;;;;;;4.50;3.77;;;;;;;7.99;92.67;98825.80;2874149;81;21075;-92
2022/09/29 03:56:36;;;;;;;4.90;4.03;;;;;;;8.00;92.85;98830.11;2879247;82;21107;-92
2022/09/29 04:00:37;;;;;;;5.35;3.83;;;;;;;8.03;92.86;98832.97;2874073;81;21102;-91
2022/09/29 04:04:38;;;;;;;5.20;2.92;;;;;;;7.99;92.37;98833.27;2824011;82;21064;-91
2022/09/29 04:08:40;;;;;;;5.85;3.85;;;;;;;7.97;92.71;98834.37;2881874;81;21056;-90
2022/09/29 04:12:41;;;;;;;6.92;4.12;;;;;;;7.94;92.51;98832.02;2873246;82;21034;-90
2022/09/29 04:16:42;;;;;;;6.62;4.35;;;;;;;7.92;92.68;98834.80;2877196;81;21002;-92
2022/09/29 04:20:43;;;;;;;6.22;3.30;;;;;;;7.86;92.69;98836.24;2844881;82;21002;-92
2022/09/29 04:24:47;;;;;;;4.60;3.37;;;;;;;7.86;92.05;98851.28;2838515;82;21038;-93
2022/09/29 04:28:48;;;;;;;4.60;2.90;;;;;;;7.83;91.76;98844.44;2876255;81;21343;-92
2022/09/29 04:32:49;;;;;;;4.65;3.72;;;;;;;7.83;91.71;98852.89;2865055;81;21059;-90
2022/09/29 04:36:50;;;;;;;3.98;3.58;;;;;;;7.82;91.72;98851.22;2866510;82;21043;-91
2022/09/29 04:40:51;;;;;;;4.62;3.05;;;;;;;7.79;91.87;98846.22;2874973;82;21073;-91
2022/09/29 04:44:53;;;;;;;24.40;22.48;;;;;;;7.78;92.16;98855.14;2878536;81;21058;-91
2022/09/29 04:48:54;;;;;;;4.78;4.37;;;;;;;7.76;91.80;98855.27;2878140;82;21045;-91
2022/09/29 04:52:55;;;;;;;252.03;128.15;;;;;;;7.69;92.12;98857.65;2874008;82;21013;-90
2022/09/29 04:56:56;;;;;;;51.53;23.60;;;;;;;7.52;94.74;98861.87;2933991;80;21094;-91
2022/09/29 05:01:08;;;;;;;48.55;23.00;;;;;;;7.19;97.12;98877.19;2897996;81;20997;-90
2022/09/29 05:05:11;;;;;;;46.80;20.75;;;;;;;6.94;98.76;98879.40;2897168;81;21526;-90
2022/09/29 05:09:13;;;;;;;55.80;24.92;;;;;;;6.80;99.96;98875.82;2854864;81;21058;-91
2022/09/29 05:13:14;;;;;;;56.92;18.00;;;;;;;6.80;100.00;98875.34;2898542;81;21014;-91
2022/09/29 05:17:15;;;;;;;3.58;3.02;;;;;;;6.94;100.00;98878.08;2815530;81;21104;-90
2022/09/29 05:21:16;;;;;;;4.05;3.70;;;;;;;7.17;100.00;98875.64;2848243;82;21065;-90
2022/09/29 05:25:17;;;;;;;8.48;4.78;;;;;;;7.40;100.00;98872.23;2795997;83;21632;-90
2022/09/29 05:29:18;;;;;;;12.88;5.25;;;;;;;7.65;100.00;98874.80;2872620;81;21012;-91
2022/09/29 05:33:19;;;;;;;9.85;5.20;;;;;;;7.92;100.00;98879.81;2871661;82;21018;-90
2022/09/29 05:37:20;;;;;;;10.68;5.08;;;;;;;8.18;100.00;98884.97;2871204;82;21026;-91
2022/09/29 05:41:22;;;;;;;4.20;3.75;;;;;;;8.39;99.53;98877.63;2853843;82;20977;-90
2022/09/29 05:45:23;;;;;;;10.40;3.02;;;;;;;8.64;99.29;98881.92;2833664;82;21058;-91
2022/09/29 05:49:24;;;;;;;4.62;3.52;;;;;;;8.91;99.14;98874.95;2871232;82;21077;-91
2022/09/29 05:53:26;;;;;;;7.53;3.87;;;;;;;9.11;98.44;98878.80;2868918;82;21039;-91
2022/09/29 05:57:27;;;;;;;7.83;4.85;;;;;;;9.33;99.80;98885.95;2866080;82;21027;-91
2022/09/29 06:01:28;;;;;;;7.78;3.90;;;;;;;9.25;94.61;98891.54;2863486;82;20995;-91
2022/09/29 06:05:29;;;;;;;10.38;5.12;;;;;;;9.17;95.80;98898.59;2874688;82;21020;-91
2022/09/29 06:09:34;;;;;;;12.23;8.03;;;;;;;9.12;96.09;98900.36;2820567;82;21030;-91
2022/09/29 06:13:41;;;;;;;36.03;29.40;;;;;;;9.06;97.19;98903.62;2872834;82;21042;-91
2022/09/29 06:17:42;;;;;;;21.25;13.68;;;;;;;9.00;97.83;98916.98;2876170;82;21105;-91
2022/09/29 06:21:44;;;;;;;14.40;12.60;;;;;;;9.05;98.16;98913.38;2857104;82;20991;-91
2022/09/29 06:25:45;;;;;;;6.08;4.80;;;;;;;8.92;98.11;98916.40;2870888;82;21054;-91
2022/09/29 06:29:46;;;;;;;7.30;5.72;;;;;;;8.95;100.00;98917.42;2871180;81;20990;-91
2022/09/29 06:33:48;;;;;;;31.25;23.87;;;;;;;9.06;99.55;98920.86;2872666;81;21046;-91
2022/09/29 06:37:50;;;;;;;19.80;15.58;;;;;;;9.26;100.00;98925.05;2860166;82;21098;-91
2022/09/29 06:41:55;;;;;;;6.40;4.72;;;;;;;9.42;98.33;98928.81;2942904;79;21034;-91
2022/09/29 06:45:56;;;;;;;10.88;7.90;;;;;;;9.61;97.74;98930.97;2947359;79;21007;-90
2022/09/29 06:50:01;;;;;;;15.83;10.72;;;;;;;9.71;98.21;98926.42;2918000;80;32622;-91
2022/09/29 06:54:01;;;;;;;21.50;10.08;;;;;;;9.97;98.56;98926.46;2861969;82;21034;-91
2022/09/29 06:58:03;;;;;;;6.58;5.97;;;;;;;10.18;96.24;98923.94;2875788;82;21062;-91
2022/09/29 07:02:04;;;;;;;7.78;5.42;;;;;;;10.29;95.53;98929.48;2939785;80;21021;-91
2022/09/29 07:06:09;;;;;;;5.10;4.10;;;;;;;10.60;97.03;98930.31;2906260;81;20979;-91
2022/09/29 07:10:10;;;;;;;6.00;4.58;;;;;;;11.03;98.01;98928.98;2878340;81;21068;-91
2022/09/29 07:14:13;;;;;;;5.97;4.62;;;;;;;11.50;95.97;98936.07;2904538;80;21022;-91
2022/09/29 07:18:14;;;;;;;6.80;3.35;;;;;;;11.89;95.17;98940.74;2857093;83;21011;-91
2022/09/29 07:22:15;;;;;;;5.53;3.98;;;;;;;12.25;91.50;98938.22;2854555;82;21006;-90
2022/09/29 07:26:17;;;;;;;5.72;3.58;;;;;;;12.51;89.16;98937.99;2898076;80;21081;-91
2022/09/29 07:30:18;;;;;;;8.73;6.55;;;;;;;12.65;87.69;98948.44;2901405;81;21061;-91
2022/09/29 07:34:21;;;;;;;8.18;6.35;;;;;;;12.78;84.72;98941.73;2852553;82;21022;-92
2022/09/29 07:38:22;;;;;;;13.65;10.50;;;;;;;12.92;84.42;98949.50;2854289;81;21073;-91
2022/09/29 07:42:23;;;;;;;7.75;6.35;;;;;;;13.14;85.38;98943.38;2896718;80;20983;-91
2022/09/29 07:46:25;;;;;;;8.30;6.67;;;;;;;13.41;84.45;98953.22;2886869;81;21056;-91
2022/09/29 07:50:26;;;;;;;5.45;3.50;;;;;;;13.66;82.29;98950.92;2913201;81;21069;-91
2022/09/29 07:54:27;;;;;;;4.33;3.50;;;;;;;13.89;80.72;98959.42;2915015;80;21049;-91
2022/09/29 07:58:31;;;;;;;11.95;6.62;;;;;;;13.92;80.58;98958.56;2922049;80;20991;-92
2022/09/29 08:02:32;;;;;;;2.87;2.08;;;;;;;14.11;78.74;98955.06;2914173;80;21017;-91
2022/09/29 08:06:33;;;;;;;4.62;3.45;;;;;;;14.23;77.12;98962.13;2915960;79;21014;-91
2022/09/29 08:10:34;;;;;;;5.92;4.00;;;;;;;14.23;74.82;98960.27;2895834;80;21048;-91
2022/09/29 08:14:37;;;;;;;1.85;1.40;;;;;;;14.35;74.85;98968.70;2933506;79;21019;-90
2022/09/29 08:18:40;;;;;;;4.40;3.08;;;;;;;14.29;69.99;98970.75;2922427;80;21029;-91
2022/09/29 08:22:41;;;;;;;2.95;1.85;;;;;;;14.29;71.59;98962.73;2919398;80;21065;-91
2022/09/29 08:26:42;;;;;;;2.17;1.98;;;;;;;14.45;75.36;98963.09;2921917;80;21064;-91
2022/09/29 08:30:44;;;;;;;4.75;1.75;;;;;;;14.68;73.13;98966.99;2912843;80;21109;-91
2022/09/29 08:34:45;;;;;;;3.35;2.05;;;;;;;14.78;72.03;98967.27;2833412;82;21499;-91
2022/09/29 08:38:50;;;;;;;2.20;2.00;;;;;;;14.75;72.10;98963.63;2904698;82;21022;-92
2022/09/29 08:43:11;;;;;;;2.22;1.87;;;;;;;14.73;70.55;98968.31;2905530;80;21006;-91
2022/09/29 08:47:23;;;;;;;2.77;1.67;;;;;;;14.63;72.46;98970.73;2903832;81;21128;-91
2022/09/29 08:51:32;;;;;;;3.25;1.60;;;;;;;14.52;72.41;98972.52;2905890;80;20979;-91
2022/09/29 08:55:47;;;;;;;4.37;1.52;;;;;;;14.67;73.46;98977.38;2938639;80;20964;-91
2022/09/29 08:59:58;;;;;;;1.43;1.30;;;;;;;14.83;71.82;98980.91;2878690;82;21049;-91
2022/09/29 09:04:30;;;;;;;1.52;1.10;;;;;;;15.06;72.37;98981.30;2922268;80;21004;-91
2022/09/29 09:09:02;;;;;;;1.72;1.50;;;;;;;15.19;71.23;98976.12;2757637;83;21053;-91
2022/09/29 09:13:15;;;;;;;3.17;2.42;;;;;;;15.36;71.29;98981.25;2799900;83;21068;-91
2022/09/29 09:17:25;;;;;;;2.08;1.82;;;;;;;15.42;69.57;98989.34;2762242;83;21646;-92
2022/09/29 09:21:45;;;;;;;2.45;1.27;;;;;;;15.40;67.61;98982.00;2762928;84;21025;-92
2022/09/29 09:25:56;;;;;;;1.92;1.45;;;;;;;15.42;67.76;98987.19;2756546;86;21096;-92
2022/09/29 09:30:04;;;;;;;1.75;1.35;;;;;;;15.50;68.59;98987.05;2761873;83;21106;-91
2022/09/29 09:34:20;;;;;;;3.40;2.08;;;;;;;15.47;68.62;98990.64;2777807;83;21072;-92
2022/09/29 09:38:27;;;;;;;3.23;2.87;;;;;;;15.30;66.49;98990.02;2762270;84;21041;-91
2022/09/29 09:42:32;;;;;;;3.40;2.72;;;;;;;15.31;66.88;98995.70;2855260;81;20993;-92
2022/09/29 09:46:48;;;;;;;2.55;1.85;;;;;;;15.45;67.47;98992.16;2930303;79;21050;-91
2022/09/29 09:50:50;;;;;;;3.98;2.37;;;;;;;15.71;69.14;99001.48;2854469;83;21124;-92
2022/09/29 09:55:05;;;;;;;4.95;3.72;;;;;;;15.91;67.20;99000.39;2903512;80;21089;-92
2022/09/29 09:59:11;;;;;;;7.83;4.80;;;;;;;15.95;67.78;99000.84;2774552;84;21041;-91
2022/09/29 10:03:15;;;;;;;3.10;1.98;;;;;;;15.93;65.59;98998.87;2826462;82;21110;-92
2022/09/29 10:07:19;;;;;;;2.55;2.22;;;;;;;15.98;66.34;99001.79;2833929;82;21034;-91
2022/09/29 10:11:30;;;;;;;7.75;5.42;;;;;;;16.02;66.20;99006.27;2832707;82;21054;-92
2022/09/29 10:15:42;;;;;;;2.70;1.22;;;;;;;16.25;66.85;99000.66;2818548;83;21356;-92
2022/09/29 10:20:04;;;;;;;5.42;1.92;;;;;;;16.37;66.31;99000.45;2818206;84;21023;-92
2022/09/29 10:24:25;;;;;;;6.35;2.77;;;;;;;16.56;69.03;99008.84;2845079;82;21017;-92
2022/09/29 10:28:48;;;;;;;2.08;1.80;;;;;;;16.49;66.90;99007.95;2832020;82;21101;-92
2022/09/29 10:32:55;;;;;;;2.17;1.57;;;;;;;16.65;65.10;99010.33;2832154;84;21578;-91
2022/09/29 10:37:04;;;;;;;0.53;0.53;;;;;;;16.78;67.30;99003.39;2832135;84;21558;-92
2022/09/29 10:41:07;;;;;;;1.77;1.25;;;;;;;16.92;64.70;99006.98;2831403;83;21110;-92
2022/09/29 10:45:22;;;;;;;3.08;2.12;;;;;;;16.90;62.61;99012.56;2797836;84;21111;-92
2022/09/29 10:49:28;;;;;;;3.15;1.30;;;;;;;16.90;63.29;99011.22;2832025;82;21078;-92
2022/09/29 10:53:39;;;;;;;2.17;1.98;;;;;;;16.98;66.15;99012.89;2832296;84;21090;-92
2022/09/29 10:57:40;;;;;;;1.90;1.55;;;;;;;17.02;64.89;99012.86;2884655;80;21023;-92
2022/09/29 11:01:49;;;;;;;18.57;12.35;;;;;;;17.07;63.91;99018.95;2952727;79;21031;-92
2022/09/29 11:06:13;;;;;;;3.67;3.00;;;;;;;16.94;63.09;99017.84;2863149;82;21035;-91
2022/09/29 11:10:35;;;;;;;1.95;1.75;;;;;;;16.85;63.89;99023.05;2842661;82;21082;-91
2022/09/29 11:14:40;;;;;;;2.17;1.95;;;;;;;16.78;66.42;99026.22;2882659;81;21022;-91
2022/09/29 11:18:46;;;;;;;5.70;2.33;;;;;;;16.89;65.47;99022.97;2935478;80;20955;-91
2022/09/29 11:23:18;;;;;;;5.92;4.28;;;;;;;17.00;61.50;99022.98;2901786;80;21203;-92
2022/09/29 11:27:31;;;;;;;7.03;2.70;;;;;;;17.27;62.89;99018.53;2868506;82;21097;-91
2022/09/29 11:31:59;;;;;;;3.80;3.33;;;;;;;17.41;62.37;99024.80;2870135;82;21113;-91
2022/09/29 11:36:18;;;;;;;6.53;5.37;;;;;;;17.37;60.46;99021.37;2867481;81;21046;-91
2022/09/29 11:40:49;;;;;;;7.60;6.25;;;;;;;17.10;60.01;99034.17;2859347;82;21453;-90
2022/09/29 11:45:03;;;;;;;6.22;3.98;;;;;;;16.88;64.61;99036.61;2871802;82;21068;-91
2022/09/29 11:49:33;;;;;;;7.33;3.60;;;;;;;16.81;62.58;99027.16;2867448;82;21033;-91
2022/09/29 11:54:13;;;;;;;13.62;8.38;;;;;;;16.41;64.27;99029.89;2873171;81;21594;-91
2022/09/29 11:58:32;;;;;;;11.85;7.85;;;;;;;16.48;66.28;99038.50;2868231;82;21070;-91
2022/09/29 12:03:04;;;;;;;8.50;6.25;;;;;;;16.45;64.12;99036.20;2872481;82;21027;-91
2022/09/29 12:07:37;;;;;;;2.98;2.50;;;;;;;16.45;65.29;99033.53;2871163;82;21018;-91
2022/09/29 12:12:06;;;;;;;3.33;2.52;;;;;;;16.65;62.18;99029.66;2874122;82;21621;-91
2022/09/29 12:16:19;;;;;;;4.67;4.03;;;;;;;16.74;61.07;99015.56;2811753;83;21012;-91
2022/09/29 12:20:30;;;;;;;12.33;5.42;;;;;;;16.82;61.94;99017.58;2864865;82;21169;-91
2022/09/29 12:24:47;;;;;;;2.85;2.52;;;;;;;16.78;63.44;99023.00;2843959;81;21608;-90
2022/09/29 12:29:15;;;;;;;7.20;3.08;;;;;;;16.77;65.65;99021.88;2836257;82;21469;-91
2022/09/29 12:33:25;;;;;;;3.90;2.65;;;;;;;16.87;65.42;99026.89;2834685;81;21032;-91
2022/09/29 12:37:37;;;;;;;3.67;2.50;;;;;;;17.09;61.16;99021.77;2841519;81;21103;-91
2022/09/29 12:41:44;;;;;;;3.37;2.62;;;;;;;16.98;60.75;99020.48;2867637;81;21118;-90
2022/09/29 12:46:03;;;;;;;45.55;27.90;;;;;;;17.05;59.37;99025.05;2836293;81;21007;-91
2022/09/29 12:50:21;;;;;;;5.87;3.08;;;;;;;16.77;59.26;99024.56;2836548;82;21055;-88
2022/09/29 12:54:43;;;;;;;26.02;15.88;;;;;;;16.66;58.30;99029.44;2955403;80;21011;-88
2022/09/29 12:58:52;;;;;;;6.08;4.45;;;;;;;16.58;59.51;99033.63;2971255;78;21015;-88
2022/09/29 13:03:08;;;;;;;7.95;6.33;;;;;;;16.70;59.88;99032.08;2976020;80;21368;-88
2022/09/29 13:07:24;;;;;;;23.90;16.32;;;;;;;16.77;60.18;99043.36;2945715;80;21353;-88
2022/09/29 13:11:37;;;;;;;5.17;3.90;;;;;;;16.87;62.19;99046.50;2980173;78;20999;-88
2022/09/29 13:15:53;;;;;;;2.60;2.40;;;;;;;16.93;62.89;99049.77;2969009;78;21007;-88
2022/09/29 13:20:16;;;;;;;4.37;2.37;;;;;;;17.01;63.69;99052.84;2969089;79;21041;-88
2022/09/29 13:24:53;;;;;;;6.78;4.92;;;;;;;17.12;62.52;99050.11;2975530;80;20998;-88
2022/09/29 13:29:01;;;;;;;4.62;2.33;;;;;;;17.22;60.27;99049.73;2968987;78;21140;-88
2022/09/29 13:33:09;;;;;;;1.35;1.25;;;;;;;17.24;62.70;99052.52;2948583;78;21021;-88
2022/09/29 13:37:17;;;;;;;1.60;1.50;;;;;;;17.34;64.12;99049.46;2966013;78;21534;-88
2022/09/29 13:41:29;;;;;;;2.65;1.70;;;;;;;17.52;59.50;99044.05;2927297;80;21043;-88
2022/09/29 13:45:39;;;;;;;2.02;1.52;;;;;;;17.60;57.34;99045.73;2977678;79;21022;-88
2022/09/29 13:49:41;;;;;;;1.55;1.30;;;;;;;17.66;57.71;99043.06;2971029;78;21106;-88
2022/09/29 13:53:42;;;;;;;1.85;1.12;;;;;;;17.82;58.46;99054.48;2964441;78;21005;-88
2022/09/29 13:57:50;;;;;;;2.55;1.90;;;;;;;17.75;57.16;99057.16;2952055;80;21816;-89
2022/09/29 14:01:52;;;;;;;4.33;2.22;;;;;;;17.67;58.02;99059.52;2917448;78;21403;-89
2022/09/29 14:05:58;;;;;;;1.60;1.47;;;;;;;17.78;57.15;99068.84;2972687;79;21050;-90
2022/09/29 14:10:23;;;;;;;;;;;;;;;17.80;57.68;99060.06;2941654;80;21085;-89
2022/09/29 14:14:36;;;;;;;4.80;2.87;;;;;;;17.91;54.17;99061.85;2959481;79;20127;-90
2022/09/29 14:18:45;;;;;;;32.33;16.32;;;;;;;17.96;56.19;99074.17;2955584;79;20975;-89
2022/09/29 14:23:03;;;;;;;15.13;7.35;;;;;;;17.79;55.79;99069.16;2960937;78;21078;-89
2022/09/29 14:27:48;;;;;;;7.53;4.00;;;;;;;17.44;56.35;99062.53;2962385;79;20998;-89
2022/09/29 14:31:51;;;;;;;5.65;2.70;;;;;;;17.17;59.06;99066.95;2962265;80;21022;-89
2022/09/29 14:36:02;;;;;;;7.12;3.37;;;;;;;16.87;58.81;99077.39;2968872;80;21006;-89
2022/09/29 14:54:02;;;;;;;2.10;1.75;;;;;;;16.91;64.79;99090.77;2950311;79;21034;-89
2022/09/29 14:58:45;;;;;;;1.50;1.40;;;;;;;16.89;61.69;99091.45;2960237;80;21035;-89
2022/09/29 15:02:50;;;;;;;2.92;1.67;;;;;;;16.92;60.54;99081.68;2937733;80;21557;-90
2022/09/29 15:06:51;;;;;;;3.40;2.75;;;;;;;17.01;61.12;99082.39;2956550;79;21387;-89
2022/09/29 15:10:55;;;;;;;1.60;1.50;;;;;;;17.12;59.70;99080.47;2956300;80;21030;-89
2022/09/29 15:14:57;;;;;;;1.87;1.02;;;;;;;17.19;58.53;99082.36;2957967;80;20980;-88
2022/09/29 15:19:41;;;;;;;2.85;1.75;;;;;;;17.20;58.11;99086.73;2934295;80;20988;-89
2022/09/29 15:24:18;;;;;;;6.25;4.00;;;;;;;17.15;58.06;99087.31;2957208;80;21023;-89
2022/09/29 15:28:35;;;;;;;13.98;10.78;;;;;;;17.09;58.49;99093.46;2957265;79;21015;-89
2022/09/29 15:32:36;;;;;;;23.42;17.12;;;;;;;16.96;61.28;99103.09;2940281;80;21007;-88
2022/09/29 15:36:40;;;;;;;11.15;8.75;;;;;;;16.73;62.99;99115.94;2958195;80;21374;-89
2022/09/29 15:40:44;;;;;;;8.85;5.78;;;;;;;16.65;64.62;99116.91;2954633;79;21039;-89
2022/09/29 15:44:55;;;;;;;18.60;15.48;;;;;;;16.47;64.80;99118.20;2954992;80;21007;-90
2022/09/29 15:49:14;;;;;;;6.10;5.22;;;;;;;16.23;64.10;99118.92;2960976;80;20995;-89
2022/09/29 15:53:16;;;;;;;3.92;2.55;;;;;;;16.08;63.65;99117.61;2956758;80;21082;-88
2022/09/29 15:57:52;;;;;;;4.83;2.35;;;;;;;16.02;62.88;99113.02;2965002;80;21027;-89
2022/09/29 16:01:59;;;;;;;2.43;2.17;;;;;;;15.99;62.55;99114.22;2968500;78;21010;-88
2022/09/29 16:06:26;;;;;;;2.83;1.92;;;;;;;15.94;63.24;99119.86;2965155;78;21101;-89
2022/09/29 16:10:32;;;;;;;2.70;2.20;;;;;;;15.88;63.72;99117.87;2970394;78;21038;-92
2022/09/29 16:14:33;;;;;;;1.90;1.40;;;;;;;15.73;64.77;99129.50;2957212;78;21160;-91
2022/09/29 16:18:42;;;;;;;4.53;2.33;;;;;;;15.63;64.59;99141.84;2971131;78;21066;-89
2022/09/29 16:22:47;;;;;;;3.22;2.02;;;;;;;15.52;64.79;99147.67;2962403;78;21018;-89
2022/09/29 16:26:52;;;;;;;4.47;3.62;;;;;;;15.39;64.80;99155.03;2963707;78;21629;-91
2022/09/29 16:31:06;;;;;;;13.87;6.67;;;;;;;15.26;64.83;99157.83;2968162;78;21034;-90
2022/09/29 16:35:38;;;;;;;21.33;14.80;;;;;;;15.13;65.36;99173.70;2969564;79;21010;-92
2022/09/29 16:39:43;;;;;;;5.83;5.33;;;;;;;14.94;66.88;99178.59;2964868;78;21053;-91
2022/09/29 16:43:46;;;;;;;7.87;6.53;;;;;;;14.74;68.54;99180.92;2960799;78;21058;-90
2022/09/29 16:47:49;;;;;;;15.55;10.90;;;;;;;14.49;69.87;99178.91;2967809;78;20998;-90
2022/09/29 16:51:52;;;;;;;12.55;8.45;;;;;;;14.30;70.87;99187.73;2942721;78;21002;-91
2022/09/29 16:56:02;;;;;;;81.47;35.92;;;;;;;14.13;71.92;99199.86;2953367;79;20947;-91
2022/09/29 17:00:12;;;;;;;147.53;75.47;;;;;;;13.96;73.09;99214.34;2955416;78;21008;-92
2022/09/29 17:04:14;;;;;;;38.67;22.90;;;;;;;13.83;73.25;99215.73;2945243;79;21066;-89
2022/09/29 17:08:22;;;;;;;45.67;22.40;;;;;;;13.76;74.71;99216.59;2954712;78;21505;-89
2022/09/29 17:12:26;;;;;;;35.83;17.90;;;;;;;13.69;74.92;99227.12;2938010;79;21003;-90
2022/09/29 17:16:28;;;;;;;32.15;18.50;;;;;;;13.59;73.92;99225.17;2950121;80;20991;-91
2022/09/29 17:20:30;;;;;;;33.70;18.27;;;;;;;13.49;74.03;99226.19;2961497;79;21019;-89
2022/09/29 17:24:31;;;;;;;77.87;46.45;;;;;;;13.44;73.84;99236.55;2950153;78;20987;-91
2022/09/29 17:28:33;;;;;;;90.15;51.15;;;;;;;13.34;74.65;99240.72;2954105;78;21053;-91
2022/09/29 17:32:35;;;;;;;79.00;47.85;;;;;;;13.23;75.49;99245.91;2956168;78;21578;-91
2022/09/29 17:36:37;;;;;;;81.87;46.00;;;;;;;13.08;76.07;99253.77;2880809;80;21546;-87
2022/09/29 17:41:04;;;;;;;32.88;20.70;;;;;;;12.92;78.01;99255.92;2956517;80;21035;-90
2022/09/29 17:45:06;;;;;;;42.25;21.23;;;;;;;12.76;81.80;99254.57;2955954;78;20976;-90
2022/09/29 17:49:13;;;;;;;43.28;27.13;;;;;;;12.69;81.12;99255.23;2955228;79;21523;-91
2022/09/29 17:53:16;;;;;;;40.73;24.85;;;;;;;12.70;81.22;99267.58;2879018;78;21728;-89
2022/09/29 17:57:23;;;;;;;26.07;16.82;;;;;;;12.62;83.03;99266.25;2954823;78;21416;-89
2022/09/29 18:01:24;;;;;;;32.55;20.85;;;;;;;12.51;82.97;99267.88;2964949;79;21565;-91
2022/09/29 18:05:31;;;;;;;25.08;17.32;;;;;;;12.45;83.44;99271.21;2965977;78;21085;-90
2022/09/29 18:09:32;;;;;;;27.70;15.30;;;;;;;12.40;83.22;99271.20;2966372;79;21085;-89
2022/09/29 18:13:33;;;;;;;24.05;12.05;;;;;;;12.37;83.35;99267.50;2866105;80;21533;-91
2022/09/29 18:17:35;;;;;;;16.15;9.20;;;;;;;12.36;83.83;99271.17;2964648;79;21594;-90
2022/09/29 18:21:36;;;;;;;17.55;9.65;;;;;;;12.36;83.87;99271.69;2965417;79;21041;-90
2022/09/29 18:25:38;;;;;;;10.55;7.78;;;;;;;12.37;83.99;99274.17;2921399;80;20975;-91
2022/09/29 18:29:39;;;;;;;8.33;6.12;;;;;;;12.38;84.64;99271.88;2965700;79;21022;-89
2022/09/29 18:33:40;;;;;;;12.55;8.35;;;;;;;12.38;84.41;99269.20;2884309;78;21019;-90
2022/09/29 18:37:41;;;;;;;14.47;9.40;;;;;;;12.39;84.81;99273.53;2964962;78;21046;-90
2022/09/29 18:41:43;;;;;;;9.90;6.87;;;;;;;12.33;85.79;99266.16;2956206;79;21046;-89
2022/09/29 18:45:44;;;;;;;9.33;6.65;;;;;;;12.27;85.54;99262.83;2887428;80;21037;-91
2022/09/29 18:49:46;;;;;;;10.38;6.97;;;;;;;12.14;87.20;99270.77;2946524;80;21037;-91
2022/09/29 18:53:47;;;;;;;11.53;7.55;;;;;;;12.02;87.27;99274.73;2963576;79;21563;-89
2022/09/29 18:57:48;;;;;;;14.58;9.23;;;;;;;11.86;88.70;99278.95;2963439;79;21648;-90
2022/09/29 19:01:49;;;;;;;14.65;11.03;;;;;;;11.79;89.03;99280.59;2956507;79;21648;-89
2022/09/29 19:05:52;;;;;;;21.45;13.28;;;;;;;11.72;89.54;99288.87;2949158;80;21058;-90
2022/09/29 19:09:53;;;;;;;18.82;12.70;;;;;;;11.62;89.89;99286.83;2954219;79;21006;-90
2022/09/29 19:13:55;;;;;;;83.12;54.13;;;;;;;11.57;91.09;99290.77;2955609;80;21337;-87
2022/09/29 19:17:57;;;;;;;45.75;28.17;;;;;;;11.51;91.88;99293.25;2933535;78;21593;-92
2022/09/29 19:21:58;;;;;;;30.68;18.42;;;;;;;11.56;91.10;99301.09;2955069;79;21043;-93
2022/09/29 19:26:00;;;;;;;19.95;16.05;;;;;;;11.43;92.37;99317.48;2960084;80;21534;-93
2022/09/29 19:30:02;;;;;;;21.65;15.88;;;;;;;11.40;91.76;99308.47;2961266;78;21075;-89
2022/09/29 19:34:04;;;;;;;23.92;17.75;;;;;;;11.40;91.84;99319.12;2950605;78;21031;-92
2022/09/29 19:38:05;;;;;;;27.02;18.30;;;;;;;11.24;94.40;99316.33;2961674;79;21046;-89
2022/09/29 19:42:06;;;;;;;28.40;17.40;;;;;;;11.06;95.76;99318.51;2950426;79;21030;-91